EVRA/RIX METAR and TAF weather

Enter ICAO airport designator
Station Type Date Time Source
EVRA METAR 2022/01/26 14:50 UTC NOAA

EVRA 261450Z 18011KT 9000 4200 -SN OVC006 M02/M03 Q1012 NOSIG


Station Type Date Time Source
EVRA Decoded METAR 2022/01/26 14:50 UTC NOAA

Riga International Airport, Latvia (EVRA) 56-55N 023-58E
Jan 26, 2022 - 09:50 AM EST / 2022.01.26 1450 UTC
Wind: from the S (180 degrees) at 13 MPH (11 KT):0
Visibility: 5 mile(s):0
Sky conditions: overcast
Weather: light snow
Temperature: 28 F (-2 C)
Windchill: 17 F (-8 C):1
Dew Point: 26 F (-3 C)
Relative Humidity: 92%
Pressure (altimeter): 29.88 in. Hg (1012 hPa)
ob: EVRA 261450Z 18011KT 9000 4200 -SN OVC006 M02/M03 Q1012 NOSIG
cycle: 15

Station Type Date Time Source
EVRA TAF 2022/01/26 15:03 UTC NOAA

TAF TAF EVRA 261402Z 2615/2715 19007KT 8000 OVC008
TEMPO 2615/2619 2000 -SNRA -FZDZ BR BKN002 OVC008
TEMPO 2619/2621 1200 -RASN BR BKN001
TEMPO 2621/2703 0700 -RASN FG OVC001
TEMPO 2703/2709 SCT005 BKN010
TEMPO 2709/2715 3000 -RASN BR BKN002

Example: see airport list